Time;durP1;ratioP1;P1;durP2;ratioP2;P2;SDS_P1;SDS_P2;PMS_P1;PMS_P2;Temp;Humidity;BMP_temperature;BMP_pressure;BME280_temperature;BME280_humidity;BME280_pressure;Samples;Min_cycle;Max_cycle;Signal;HPM_P1;HPM_P2
2021/04/23 00:01:04;;;;;;;12.03;4.90;;;;;;;;;;5088733;28;21159;-86
2021/04/23 00:03:46;;;;;;;14.67;5.10;;;;;;;;;;5085520;28;20459;-86
2021/04/23 00:06:24;;;;;;;8.80;4.27;;;;;;;;;;5092291;28;20452;-85
2021/04/23 00:09:09;;;;;;;9.03;4.43;;;;;;;;;;5083188;28;20465;-85
2021/04/23 00:14:28;;;;;;;7.67;4.90;;;;;;;;;;5084460;28;20452;-85
2021/04/23 00:17:07;;;;;;;7.23;4.30;;;;;;;;;;5087485;28;20470;-86
2021/04/23 00:19:45;;;;;;;6.40;4.40;;;;;;;;;;5086218;28;20475;-85
2021/04/23 00:22:21;;;;;;;10.23;6.17;;;;;;;;;;5099235;28;20612;-85
2021/04/23 00:24:57;;;;;;;8.17;4.83;;;;;;;;;;5087312;28;20464;-85
2021/04/23 00:27:29;;;;;;;10.80;5.83;;;;;;;;;;5069108;28;20457;-86
2021/04/23 00:30:02;;;;;;;7.70;5.40;;;;;;;;;;5084671;28;20450;-85
2021/04/23 00:35:24;;;;;;;6.63;4.87;;;;;;;;;;5102009;28;20454;-85
2021/04/23 00:37:57;;;;;;;9.73;5.17;;;;;;;;;;5096146;28;20467;-85
2021/04/23 00:41:01;;;;;;;11.37;5.40;;;;;;;;;;5095669;28;22065;-85
2021/04/23 00:43:34;;;;;;;13.33;5.73;;;;;;;;;;5092736;28;20483;-85
2021/04/23 00:46:12;;;;;;;12.53;6.10;;;;;;;;;;5087205;28;20527;-86
2021/04/23 00:48:52;;;;;;;10.67;6.20;;;;;;;;;;5079397;28;20459;-86
2021/04/23 00:51:33;;;;;;;8.57;5.53;;;;;;;;;;5085588;28;20506;-88
2021/04/23 00:54:08;;;;;;;9.00;5.37;;;;;;;;;;5084313;28;20456;-86
2021/04/23 00:56:44;;;;;;;14.73;5.90;;;;;;;;;;5084210;28;20457;-86
2021/04/23 00:59:22;;;;;;;7.80;4.70;;;;;;;;;;5108540;28;20497;-86
2021/04/23 01:01:56;;;;;;;9.93;4.97;;;;;;;;;;5096375;28;20805;-86
2021/04/23 01:04:34;;;;;;;9.20;5.30;;;;;;;;;;5080705;28;20436;-86
2021/04/23 01:07:12;;;;;;;6.30;4.80;;;;;;;;;;5095980;28;20454;-86
2021/04/23 01:09:44;;;;;;;10.67;5.10;;;;;;;;;;5092142;28;20549;-86
2021/04/23 01:12:21;;;;;;;10.87;4.77;;;;;;;;;;5097479;28;20480;-86
2021/04/23 01:14:53;;;;;;;10.60;5.07;;;;;;;;;;5082258;28;20984;-86
2021/04/23 01:17:32;;;;;;;11.73;4.93;;;;;;;;;;5088127;28;20815;-86
2021/04/23 01:20:05;;;;;;;7.03;4.90;;;;;;;;;;5086559;28;20453;-85
2021/04/23 01:22:49;;;;;;;7.60;4.57;;;;;;;;;;5084202;28;20460;-85
2021/04/23 01:25:28;;;;;;;6.97;5.17;;;;;;;;;;5079251;28;20451;-85
2021/04/23 01:28:06;;;;;;;10.33;5.00;;;;;;;;;;5087776;28;20786;-85
2021/04/23 01:33:28;;;;;;;7.60;4.60;;;;;;;;;;5090684;28;20452;-86
2021/04/23 01:36:06;;;;;;;10.87;5.63;;;;;;;;;;5080809;28;20855;-85
2021/04/23 01:38:45;;;;;;;6.73;4.73;;;;;;;;;;5089779;28;20504;-86
2021/04/23 01:41:15;;;;;;;8.40;4.90;;;;;;;;;;5102836;28;20439;-85
2021/04/23 01:43:53;;;;;;;10.43;5.60;;;;;;;;;;5103491;28;20488;-86
2021/04/23 01:46:33;;;;;;;10.13;5.50;;;;;;;;;;5091237;28;20463;-85
2021/04/23 01:49:11;;;;;;;10.90;4.90;;;;;;;;;;5074127;28;20458;-85
2021/04/23 01:51:45;;;;;;;8.70;5.40;;;;;;;;;;5084080;28;20459;-85
2021/04/23 01:54:24;;;;;;;8.43;4.57;;;;;;;;;;5080859;28;20844;-85
2021/04/23 01:57:03;;;;;;;7.40;5.20;;;;;;;;;;5081505;28;20484;-85
2021/04/23 01:59:47;;;;;;;8.60;4.93;;;;;;;;;;5087804;28;20494;-85
2021/04/23 02:02:25;;;;;;;7.43;5.33;;;;;;;;;;5091461;28;20534;-85
2021/04/23 02:05:04;;;;;;;9.83;5.30;;;;;;;;;;5090141;28;20528;-85
2021/04/23 02:10:33;;;;;;;10.30;5.00;;;;;;;;;;5090663;28;20484;-85
2021/04/23 02:13:07;;;;;;;14.23;4.93;;;;;;;;;;5102419;28;20451;-85
2021/04/23 02:15:40;;;;;;;7.10;4.70;;;;;;;;;;5100760;28;20475;-85
2021/04/23 02:18:17;;;;;;;11.47;5.30;;;;;;;;;;5103376;28;20461;-85
2021/04/23 02:20:50;;;;;;;11.93;5.20;;;;;;;;;;5110604;28;20450;-85
2021/04/23 02:23:28;;;;;;;8.57;4.77;;;;;;;;;;5106463;28;20458;-85
2021/04/23 02:26:07;;;;;;;10.93;4.33;;;;;;;;;;5106872;28;20453;-86
2021/04/23 02:28:41;;;;;;;8.93;5.53;;;;;;;;;;5101991;28;20456;-85
2021/04/23 02:31:20;;;;;;;13.20;5.30;;;;;;;;;;5089452;28;20430;-85
2021/04/23 02:33:58;;;;;;;9.30;5.63;;;;;;;;;;5111144;28;20449;-85
2021/04/23 02:36:37;;;;;;;10.67;5.70;;;;;;;;;;5093062;28;20468;-85
2021/04/23 02:39:11;;;;;;;7.67;5.17;;;;;;;;;;5093956;28;20466;-85
2021/04/23 02:41:56;;;;;;;7.60;5.20;;;;;;;;;;5098194;28;20456;-86
2021/04/23 02:44:29;;;;;;;9.13;5.23;;;;;;;;;;5095981;28;20866;-85
2021/04/23 02:47:02;;;;;;;9.13;5.30;;;;;;;;;;5096190;28;20441;-85
2021/04/23 02:49:40;;;;;;;6.87;4.70;;;;;;;;;;5106811;28;20509;-85
2021/04/23 02:52:13;;;;;;;7.63;5.17;;;;;;;;;;5102437;28;20431;-86
2021/04/23 02:54:51;;;;;;;8.97;5.50;;;;;;;;;;5104270;28;20449;-86
2021/04/23 02:57:35;;;;;;;12.17;5.33;;;;;;;;;;5097758;28;20446;-85
2021/04/23 03:00:16;;;;;;;6.33;4.80;;;;;;;;;;5103114;28;20429;-86
2021/04/23 03:02:53;;;;;;;14.83;5.40;;;;;;;;;;5087818;28;20463;-86
2021/04/23 03:05:26;;;;;;;5.83;4.40;;;;;;;;;;5097663;28;20536;-86
2021/04/23 03:08:04;;;;;;;9.30;4.87;;;;;;;;;;5093014;28;20453;-85
2021/04/23 03:10:39;;;;;;;7.60;4.80;;;;;;;;;;5086568;28;20453;-86
2021/04/23 03:13:19;;;;;;;10.73;5.20;;;;;;;;;;5080588;28;20456;-85
2021/04/23 03:15:53;;;;;;;10.80;5.63;;;;;;;;;;5087470;28;20432;-86
2021/04/23 03:18:31;;;;;;;8.70;5.17;;;;;;;;;;5093082;28;20480;-86
2021/04/23 03:21:09;;;;;;;6.87;5.17;;;;;;;;;;5089857;28;20517;-86
2021/04/23 03:23:48;;;;;;;5.50;4.40;;;;;;;;;;5094035;28;20494;-86
2021/04/23 03:26:27;;;;;;;10.47;5.57;;;;;;;;;;5096905;28;20466;-86
2021/04/23 03:29:04;;;;;;;8.10;5.20;;;;;;;;;;5109711;28;20512;-86
2021/04/23 03:31:37;;;;;;;8.63;5.20;;;;;;;;;;5110922;28;20449;-86
2021/04/23 03:34:10;;;;;;;8.57;4.97;;;;;;;;;;5093082;28;20442;-85
2021/04/23 03:36:43;;;;;;;12.50;5.53;;;;;;;;;;5103601;28;20434;-86
2021/04/23 03:39:15;;;;;;;9.53;5.10;;;;;;;;;;5101904;28;20467;-86
2021/04/23 03:41:50;;;;;;;8.90;5.63;;;;;;;;;;5107043;28;20476;-86
2021/04/23 03:44:22;;;;;;;9.53;5.03;;;;;;;;;;5108328;28;20477;-85
2021/04/23 03:47:01;;;;;;;12.30;6.33;;;;;;;;;;5092036;28;20891;-84
2021/04/23 03:49:43;;;;;;;10.10;5.70;;;;;;;;;;5089388;28;20499;-85
2021/04/23 03:52:20;;;;;;;7.70;5.07;;;;;;;;;;5082252;28;20456;-85
2021/04/23 03:54:58;;;;;;;10.03;5.20;;;;;;;;;;5090621;28;20444;-86
2021/04/23 03:57:30;;;;;;;10.50;5.70;;;;;;;;;;5086418;28;20442;-85
2021/04/23 04:00:03;;;;;;;12.60;6.17;;;;;;;;;;5082378;28;20967;-86
2021/04/23 04:02:47;;;;;;;8.10;5.60;;;;;;;;;;5090635;28;20442;-85
2021/04/23 04:05:27;;;;;;;9.90;5.50;;;;;;;;;;5091533;28;20919;-85
2021/04/23 04:07:59;;;;;;;12.57;5.43;;;;;;;;;;5087003;28;20908;-85
2021/04/23 04:10:31;;;;;;;12.57;5.73;;;;;;;;;;5084058;28;20488;-85
2021/04/23 04:13:08;;;;;;;12.50;5.50;;;;;;;;;;5095068;28;20455;-85
2021/04/23 04:15:46;;;;;;;11.30;5.40;;;;;;;;;;5097673;28;20464;-86
2021/04/23 04:18:31;;;;;;;8.47;5.57;;;;;;;;;;5091747;28;20461;-86
2021/04/23 04:21:03;;;;;;;8.90;4.93;;;;;;;;;;5094436;28;20488;-84
2021/04/23 04:23:36;;;;;;;11.30;6.33;;;;;;;;;;5093041;28;20475;-85
2021/04/23 04:26:13;;;;;;;12.40;5.63;;;;;;;;;;5082469;28;20441;-85
2021/04/23 04:28:51;;;;;;;10.10;5.23;;;;;;;;;;5089756;28;20449;-84
2021/04/23 04:31:24;;;;;;;9.20;5.17;;;;;;;;;;5092714;28;20455;-85
2021/04/23 04:34:07;;;;;;;10.27;5.70;;;;;;;;;;5084285;28;20481;-85
2021/04/23 04:36:40;;;;;;;10.10;7.63;;;;;;;;;;5090862;28;20458;-85
2021/04/23 04:39:15;;;;;;;8.50;4.57;;;;;;;;;;5096642;28;20964;-85
2021/04/23 04:41:47;;;;;;;11.97;5.90;;;;;;;;;;5087962;28;20460;-86
2021/04/23 04:44:24;;;;;;;8.13;4.90;;;;;;;;;;5085351;28;20453;-85
2021/04/23 04:46:57;;;;;;;13.30;4.93;;;;;;;;;;5085968;28;20445;-85
2021/04/23 04:49:42;;;;;;;10.17;4.80;;;5.10;64.70;;;;;;5086399;28;20449;-85
2021/04/23 04:52:22;;;;;;;10.60;5.70;;;5.40;63.90;;;;;;5089329;28;20450;-86
2021/04/23 04:55:05;;;;;;;8.33;5.10;;;5.20;61.30;;;;;;5086210;28;20855;-86
2021/04/23 04:57:40;;;;;;;9.70;5.33;;;5.00;60.70;;;;;;5092599;28;21035;-86
2021/04/23 05:00:16;;;;;;;9.57;5.23;;;6.10;60.70;;;;;;5084364;28;20446;-85
2021/04/23 05:02:50;;;;;;;10.70;5.50;;;6.00;59.60;;;;;;5071609;28;20531;-87
2021/04/23 05:05:26;;;;;;;12.07;5.33;;;6.50;59.70;;;;;;5079717;28;20443;-85
2021/04/23 05:08:01;;;;;;;7.90;4.90;;;7.60;58.50;;;;;;5090428;28;20517;-85
2021/04/23 05:10:52;;;;;;;12.07;5.10;;;8.00;56.60;;;;;;5081114;28;20453;-85
2021/04/23 05:13:32;;;;;;;10.87;5.20;;;8.50;58.20;;;;;;5085449;28;20509;-85
2021/04/23 05:16:12;;;;;;;10.20;5.17;;;7.50;55.00;;;;;;5086549;28;20507;-84
2021/04/23 05:18:52;;;;;;;10.70;5.93;;;7.10;54.10;;;;;;5094857;28;20965;-85
2021/04/23 05:21:32;;;;;;;12.40;5.67;;;5.80;54.30;;;;;;5091508;28;20481;-85
2021/04/23 05:24:08;;;;;;;10.90;4.77;;;8.00;56.70;;;;;;5088707;28;20612;-85
2021/04/23 05:26:43;;;;;;;11.53;5.37;;;9.10;54.70;;;;;;5082439;28;20493;-86
2021/04/23 05:29:23;;;;;;;8.23;5.00;;;8.20;51.40;;;;;;5096717;28;20440;-86
2021/04/23 05:31:55;;;;;;;7.10;4.97;;;8.90;52.70;;;;;;5096287;28;20448;-85
2021/04/23 05:34:32;;;;;;;9.67;6.67;;;8.10;52.00;;;;;;5093371;28;20446;-86
2021/04/23 05:37:10;;;;;;;9.53;6.17;;;8.00;52.80;;;;;;5085900;28;20462;-86
2021/04/23 05:39:50;;;;;;;11.87;5.77;;;6.00;52.60;;;;;;5086623;28;20532;-86
2021/04/23 05:42:26;;;;;;;8.03;5.40;;;6.80;54.80;;;;;;5089915;28;20460;-85
2021/04/23 05:45:01;;;;;;;17.13;6.30;;;7.00;55.00;;;;;;5093905;28;20790;-85
2021/04/23 05:47:40;;;;;;;11.93;7.28;;;7.40;55.00;;;;;;5079567;28;20472;-88
2021/04/23 05:50:25;;;;;;;9.50;6.27;;;6.70;53.60;;;;;;5082323;28;20191;-88
2021/04/23 05:59:10;;;;;;;9.37;5.20;;;4.40;57.30;;;;;;5087919;28;20544;-87
2021/04/23 06:04:34;;;;;;;11.27;6.57;;;4.50;58.10;;;;;;5089650;28;20479;-87
2021/04/23 06:07:14;;;;;;;9.53;6.07;;;4.60;58.40;;;;;;5093706;28;20451;-88
2021/04/23 06:09:47;;;;;;;11.40;6.23;;;4.30;59.00;;;;;;5088202;28;20550;-86
2021/04/23 06:12:33;;;;;;;10.80;6.50;;;4.50;59.00;;;;;;5077701;28;20446;-88
2021/04/23 06:15:14;;;;;;;10.87;7.00;;;4.70;59.10;;;;;;5095052;28;20460;-88
2021/04/23 06:17:54;;;;;;;12.70;6.33;;;4.90;59.10;;;;;;5103815;28;20450;-88
2021/04/23 06:20:38;;;;;;;23.40;7.40;;;4.90;58.60;;;;;;5102763;28;20452;-87
2021/04/23 06:23:19;;;;;;;11.63;6.10;;;4.90;58.50;;;;;;5094251;28;20542;-88
2021/04/23 06:26:01;;;;;;;12.00;6.80;;;5.20;58.80;;;;;;5097893;28;20466;-89
2021/04/23 06:31:30;;;;;;;11.93;6.40;;;5.50;58.20;;;;;;5104053;28;20498;-87
2021/04/23 06:34:05;;;;;;;10.13;6.27;;;5.60;58.10;;;;;;5088666;28;20488;-85
2021/04/23 06:36:40;;;;;;;14.73;6.80;;;5.60;58.00;;;;;;5096824;28;20535;-86
2021/04/23 06:39:21;;;;;;;14.60;8.27;;;5.80;57.90;;;;;;5106599;28;20470;-86
2021/04/23 06:42:17;;;;;;;12.43;7.33;;;6.00;57.50;;;;;;5090711;28;20476;-87
2021/04/23 06:44:50;;;;;;;14.03;7.00;;;6.10;57.30;;;;;;5087976;28;21028;-86
2021/04/23 06:47:25;;;;;;;12.90;7.17;;;5.90;57.20;;;;;;5088670;28;20450;-84
2021/04/23 06:50:05;;;;;;;13.60;8.90;;;6.10;57.50;;;;;;5093789;28;20507;-87
2021/04/23 06:52:41;;;;;;;17.83;7.63;;;6.00;57.20;;;;;;5093879;28;20448;-86
2021/04/23 06:55:18;;;;;;;17.83;10.17;;;6.20;56.70;;;;;;5109971;28;20510;-87
2021/04/23 06:57:54;;;;;;;12.63;9.00;;;6.30;56.90;;;;;;5111097;28;20463;-86
2021/04/23 07:00:31;;;;;;;16.20;11.03;;;6.50;57.10;;;;;;5099183;28;20442;-86
2021/04/23 07:06:00;;;;;;;16.87;9.23;;;6.60;56.80;;;;;;5096602;28;20472;-86
2021/04/23 07:11:49;;;;;;;13.17;9.47;;;6.70;56.90;;;;;;5103515;28;20446;-86
2021/04/23 07:14:38;;;;;;;15.27;9.20;;;6.80;56.80;;;;;;5096421;28;20455;-87
2021/04/23 07:17:29;;;;;;;16.00;8.00;;;7.00;57.00;;;;;;5097022;28;20474;-87
2021/04/23 07:26:19;;;;;;;12.97;8.80;;;7.20;56.00;;;;;;5085919;28;20530;-86
2021/04/23 07:31:50;;;;;;;15.50;8.50;;;7.40;55.80;;;;;;5073495;28;20469;-87
2021/04/23 07:34:26;;;;;;;16.33;7.60;;;7.50;56.00;;;;;;5091232;28;20452;-87
2021/04/23 07:37:01;;;;;;;15.50;8.03;;;7.50;55.40;;;;;;5095949;28;20452;-83
2021/04/23 07:39:36;;;;;;;11.43;7.47;;;7.50;55.50;;;;;;5080522;28;20782;-83
2021/04/23 07:42:11;;;;;;;14.07;8.37;;;7.70;55.20;;;;;;5082580;28;20460;-83
2021/04/23 07:44:46;;;;;;;14.47;8.40;;;8.00;55.10;;;;;;5082408;28;20448;-83
2021/04/23 07:47:22;;;;;;;15.27;8.50;;;8.30;54.60;;;;;;5085359;28;20469;-83
2021/04/23 07:50:01;;;;;;;12.23;6.73;;;8.20;54.30;;;;;;5091747;28;20431;-85
2021/04/23 07:52:36;;;;;;;13.70;6.87;;;8.10;53.90;;;;;;5086523;28;20492;-83
2021/04/23 07:55:19;;;;;;;22.70;7.60;;;8.10;54.10;;;;;;5090928;28;20453;-82
2021/04/23 07:57:54;;;;;;;12.27;6.93;;;8.20;53.60;;;;;;5092539;28;20837;-82
2021/04/23 08:00:27;;;;;;;14.10;6.37;;;8.30;52.80;;;;;;5083144;28;20481;-83
2021/04/23 08:03:06;;;;;;;12.93;7.07;;;8.50;53.30;;;;;;5079802;28;20804;-82
2021/04/23 08:05:40;;;;;;;17.63;7.13;;;8.50;52.30;;;;;;5090390;28;20447;-84
2021/04/23 08:08:16;;;;;;;11.23;6.70;;;8.70;52.60;;;;;;5087788;28;20897;-82
2021/04/23 08:10:51;;;;;;;13.10;7.00;;;8.70;52.00;;;;;;5083439;28;20460;-83
2021/04/23 08:13:25;;;;;;;9.63;6.80;;;8.90;52.10;;;;;;5092546;28;20460;-82
2021/04/23 08:16:00;;;;;;;8.30;6.53;;;9.00;52.50;;;;;;5106117;28;20575;-82
2021/04/23 08:18:39;;;;;;;11.40;5.90;;;9.10;51.90;;;;;;5096660;28;20503;-86
2021/04/23 08:21:11;;;;;;;16.03;6.77;;;9.40;51.90;;;;;;5091764;28;20676;-86
2021/04/23 08:23:46;;;;;;;9.37;6.90;;;9.20;51.60;;;;;;5090353;28;20510;-85
2021/04/23 08:26:22;;;;;;;12.43;6.40;;;9.10;51.00;;;;;;5100965;28;20452;-85
2021/04/23 08:28:57;;;;;;;10.93;6.03;;;9.20;50.50;;;;;;5093720;28;20448;-84
2021/04/23 08:31:32;;;;;;;14.30;6.60;;;9.20;50.10;;;;;;5103002;28;20464;-84
2021/04/23 08:34:08;;;;;;;12.50;6.20;;;9.30;50.50;;;;;;5098738;28;20456;-87
2021/04/23 08:36:44;;;;;;;11.47;5.30;;;9.50;50.50;;;;;;5096071;28;20440;-84
2021/04/23 08:39:19;;;;;;;13.37;6.80;;;9.40;49.80;;;;;;5091159;28;20517;-85
2021/04/23 08:41:54;;;;;;;12.40;5.97;;;9.40;49.50;;;;;;5098699;28;20450;-83
2021/04/23 08:44:52;;;;;;;15.77;6.80;;;9.50;48.90;;;;;;5096324;28;20459;-91
2021/04/23 08:52:12;;;;;;;7.93;6.30;;;9.60;47.90;;;;;;5022174;28;20455;-92
2021/04/23 08:55:24;;;;;;;8.73;6.23;;;9.60;48.70;;;;;;5028292;28;20581;-90
2021/04/23 09:01:35;;;;;;;25.17;7.57;;;10.20;47.40;;;;;;5083736;28;20469;-89
2021/04/23 09:04:11;;;;;;;11.03;6.10;;;9.80;47.60;;;;;;5088512;28;20558;-86
2021/04/23 09:10:16;;;;;;;8.27;6.57;;;10.10;46.00;;;;;;5019481;28;20535;-88
2021/04/23 09:13:13;;;;;;;15.00;6.90;;;10.10;46.10;;;;;;5094453;28;21254;-86
2021/04/23 09:15:47;;;;;;;14.45;7.47;;;9.80;46.70;;;;;;5090493;28;20444;-87
2021/04/23 09:18:26;;;;;;;10.63;7.33;;;10.30;46.40;;;;;;5089397;28;20237;-87
2021/04/23 09:21:14;;;;;;;9.73;7.00;;;10.60;45.70;;;;;;5088997;28;20467;-87
2021/04/23 09:24:03;;;;;;;14.90;6.90;;;10.50;45.50;;;;;;5098639;28;20472;-87
2021/04/23 09:26:48;;;;;;;10.37;7.07;;;10.50;45.60;;;;;;5072695;28;20445;-86
2021/04/23 09:29:34;;;;;;;15.25;7.75;;;10.40;44.80;;;;;;5073303;28;20442;-84
2021/04/23 09:32:18;;;;;;;12.15;8.10;;;10.60;45.20;;;;;;5091000;28;21010;-86
2021/04/23 09:35:06;;;;;;;17.63;8.40;;;10.30;45.20;;;;;;5084013;28;20525;-88
2021/04/23 09:40:42;;;;;;;10.60;6.77;;;10.60;46.20;;;;;;5081897;28;20202;-88
2021/04/23 09:43:27;;;;;;;14.00;6.90;;;10.80;45.60;;;;;;5083714;28;20466;-90
2021/04/23 09:48:49;;;;;;;11.68;8.30;;;10.90;45.40;;;;;;5091951;28;20437;-88
2021/04/23 09:51:22;;;;;;;12.93;7.87;;;11.20;45.40;;;;;;5075754;28;20201;-89
2021/04/23 09:54:24;;;;;;;11.97;7.60;;;11.00;45.20;;;;;;5097530;28;20507;-89
2021/04/23 09:57:06;;;;;;;13.77;7.00;;;10.70;45.50;;;;;;5084918;28;20445;-91
2021/04/23 10:02:59;;;;;;;14.40;7.20;;;11.00;45.00;;;;;;5083075;28;20453;-88
2021/04/23 10:08:31;;;;;;;8.03;6.40;;;11.60;44.80;;;;;;5090548;28;20451;-89
2021/04/23 10:11:06;;;;;;;10.30;7.30;;;11.60;43.70;;;;;;5060580;28;20445;-82
2021/04/23 10:13:41;;;;;;;10.27;7.93;;;11.40;43.30;;;;;;5087398;28;20198;-83
2021/04/23 10:16:17;;;;;;;10.87;8.50;;;11.20;43.80;;;;;;5091880;28;20448;-83
2021/04/23 10:18:49;;;;;;;10.70;7.97;;;11.30;44.20;;;;;;5085303;28;24204;-82
2021/04/23 10:21:21;;;;;;;14.47;7.13;;;11.70;44.20;;;;;;5093670;28;20453;-84
2021/04/23 10:23:55;;;;;;;16.50;7.57;;;11.80;44.30;;;;;;5086793;28;20484;-83
2021/04/23 10:26:34;;;;;;;10.13;7.27;;;11.90;43.70;;;;;;5088858;28;20447;-86
2021/04/23 10:29:10;;;;;;;11.27;7.57;;;11.90;43.70;;;;;;5092897;28;20448;-83
2021/04/23 10:31:45;;;;;;;11.10;7.53;;;12.00;43.30;;;;;;5094158;28;20908;-82
2021/04/23 10:34:21;;;;;;;12.70;7.13;;;11.80;43.30;;;;;;5093286;28;20484;-85
2021/04/23 10:36:56;;;;;;;9.23;6.43;;;12.00;42.90;;;;;;5111583;28;20448;-84
2021/04/23 10:39:35;;;;;;;10.00;6.77;;;11.80;42.80;;;;;;5099298;28;20554;-81
2021/04/23 10:42:42;;;;;;;13.13;7.23;;;12.20;42.70;;;;;;5089822;28;20487;-82
2021/04/23 10:45:25;;;;;;;9.43;6.60;;;12.50;42.40;;;;;;5099993;28;20534;-83
2021/04/23 10:48:02;;;;;;;10.97;6.70;;;12.40;41.10;;;;;;5094007;28;20947;-82
2021/04/23 10:50:48;;;;;;;9.87;6.47;;;12.20;41.40;;;;;;5095364;28;20453;-82
2021/04/23 10:53:41;;;;;;;11.23;6.77;;;12.10;41.10;;;;;;5093353;28;20505;-83
2021/04/23 10:56:29;;;;;;;12.80;7.00;;;12.20;40.70;;;;;;5097173;28;20488;-84
2021/04/23 10:59:07;;;;;;;8.87;6.60;;;12.20;40.80;;;;;;5090645;28;20491;-82
2021/04/23 11:01:43;;;;;;;11.57;6.93;;;12.10;40.60;;;;;;5086717;28;20799;-81
2021/04/23 11:04:21;;;;;;;8.03;6.40;;;12.50;41.40;;;;;;5088068;28;20472;-80
2021/04/23 11:07:03;;;;;;;9.47;6.40;;;12.60;41.10;;;;;;5087465;28;20471;-81
2021/04/23 11:09:38;;;;;;;7.30;6.20;;;12.50;40.50;;;;;;5088419;28;20447;-79
2021/04/23 11:12:25;;;;;;;16.53;6.73;;;12.50;40.50;;;;;;5077061;28;20453;-78
2021/04/23 11:15:19;;;;;;;9.90;6.67;;;12.20;40.50;;;;;;5098314;28;20441;-84
2021/04/23 11:17:52;;;;;;;10.93;6.60;;;12.40;40.70;;;;;;5090093;28;20468;-80
2021/04/23 11:20:37;;;;;;;8.70;5.90;;;12.60;40.10;;;;;;5086456;28;20457;-84
2021/04/23 11:23:12;;;;;;;8.93;6.30;;;12.50;39.50;;;;;;5087529;28;20468;-80
2021/04/23 11:26:02;;;;;;;7.53;6.63;;;12.50;40.00;;;;;;5087873;28;20448;-86
2021/04/23 11:28:37;;;;;;;9.80;7.00;;;12.80;40.40;;;;;;5085788;28;20472;-79
2021/04/23 11:31:12;;;;;;;8.50;6.57;;;12.90;40.20;;;;;;5079356;28;20471;-77
2021/04/23 11:34:06;;;;;;;9.47;6.30;;;12.80;41.10;;;;;;5099868;28;20440;-84
2021/04/23 11:36:44;;;;;;;7.33;6.57;;;12.70;40.40;;;;;;5092033;28;20452;-81
2021/04/23 11:39:31;;;;;;;12.02;7.47;;;12.70;40.20;;;;;;5092731;28;20447;-84
2021/04/23 11:42:19;;;;;;;9.60;6.10;;;13.00;40.50;;;;;;5093950;28;20199;-81
2021/04/23 11:44:57;;;;;;;11.03;6.90;;;13.00;40.60;;;;;;5086106;28;20503;-81
2021/04/23 11:47:40;;;;;;;11.63;7.33;;;13.30;41.10;;;;;;5082758;28;20470;-81
2021/04/23 11:50:31;;;;;;;11.63;6.77;;;13.40;39.90;;;;;;5086151;28;20516;-83
2021/04/23 11:53:12;;;;;;;9.17;7.10;;;13.00;39.50;;;;;;5082807;28;20822;-79
2021/04/23 11:55:51;;;;;;;11.20;7.63;;;13.00;40.20;;;;;;5086152;28;20445;-83
2021/04/23 11:58:27;;;;;;;10.30;6.87;;;13.20;40.20;;;;;;5085309;28;20441;-84
2021/04/23 12:01:03;;;;;;;8.37;7.37;;;13.20;39.90;;;;;;5083763;28;20453;-81
2021/04/23 12:03:38;;;;;;;20.30;8.90;;;13.00;40.00;;;;;;5095618;28;20466;-81
2021/04/23 12:06:13;;;;;;;7.60;5.80;;;13.50;40.70;;;;;;5096794;28;20448;-81
2021/04/23 12:08:52;;;;;;;7.00;5.70;;;13.90;38.80;;;;;;5100316;28;20959;-87
2021/04/23 12:11:27;;;;;;;6.40;5.17;;;13.70;38.10;;;;;;5100150;28;20446;-85
2021/04/23 12:14:02;;;;;;;6.67;5.63;;;13.80;37.20;;;;;;5104690;28;20520;-83
2021/04/23 12:16:37;;;;;;;11.23;6.53;;;13.60;37.40;;;;;;5082772;28;20471;-86
2021/04/23 12:19:10;;;;;;;7.63;6.30;;;13.50;38.10;;;;;;5090961;28;20465;-84
2021/04/23 12:21:51;;;;;;;12.10;6.60;;;13.40;38.60;;;;;;5091189;28;20461;-80
2021/04/23 12:24:28;;;;;;;8.40;6.10;;;13.60;38.60;;;;;;5086906;28;20483;-82
2021/04/23 12:27:03;;;;;;;11.90;6.77;;;13.60;37.70;;;;;;5092177;28;20501;-81
2021/04/23 12:29:38;;;;;;;9.87;6.67;;;13.70;38.60;;;;;;5093179;28;20444;-81
2021/04/23 12:32:16;;;;;;;8.23;6.13;;;13.70;38.70;;;;;;5092009;28;20520;-79
2021/04/23 12:34:51;;;;;;;7.78;6.47;;;13.80;38.20;;;;;;5098093;28;20958;-82
2021/04/23 12:37:28;;;;;;;16.15;6.90;;;13.70;37.40;;;;;;5072117;28;20453;-85
2021/04/23 12:40:05;;;;;;;8.00;6.32;;;13.70;37.90;;;;;;5094664;28;20448;-85
2021/04/23 12:42:40;;;;;;;8.50;6.13;;;14.10;38.30;;;;;;5086348;28;20201;-84
2021/04/23 12:45:15;;;;;;;16.70;7.30;;;14.10;37.90;;;;;;5085188;28;20460;-82
2021/04/23 12:47:54;;;;;;;8.80;6.77;;;13.70;37.90;;;;;;5086107;28;20525;-84
2021/04/23 12:50:39;;;;;;;10.93;6.40;;;13.80;38.10;;;;;;5089992;28;20504;-84
2021/04/23 12:53:15;;;;;;;13.27;5.80;;;14.30;38.40;;;;;;5089277;28;20471;-83
2021/04/23 12:55:57;;;;;;;10.63;6.20;;;14.20;38.50;;;;;;5097651;28;20522;-81
2021/04/23 12:58:38;;;;;;;8.40;6.60;;;14.10;38.00;;;;;;5099218;28;20460;-82
2021/04/23 13:01:12;;;;;;;11.10;6.43;;;14.40;38.60;;;;;;5084892;28;20436;-81
2021/04/23 13:03:47;;;;;;;8.97;6.10;;;14.30;38.50;;;;;;5094671;28;20443;-81
2021/04/23 13:06:29;;;;;;;9.43;6.27;;;14.50;38.80;;;;;;5090752;28;20448;-83
2021/04/23 13:09:06;;;;;;;10.23;6.33;;;14.30;38.10;;;;;;5088248;28;20444;-82
2021/04/23 13:11:41;;;;;;;10.90;6.33;;;14.30;37.80;;;;;;5092914;28;20456;-81
2021/04/23 13:14:26;;;;;;;9.87;5.90;;;14.10;37.90;;;;;;5100461;28;20455;-81
2021/04/23 13:17:03;;;;;;;8.93;6.03;;;14.00;37.90;;;;;;5102158;28;20574;-85
2021/04/23 13:19:45;;;;;;;9.70;6.27;;;14.00;37.90;;;;;;5097081;28;20461;-84
2021/04/23 13:22:38;;;;;;;8.10;7.30;;;14.30;38.10;;;;;;5094359;28;20479;-86
2021/04/23 13:25:38;;;;;;;7.93;6.37;;;14.50;37.90;;;;;;5101138;28;20445;-87
2021/04/23 13:28:21;;;;;;;9.53;6.70;;;14.60;38.30;;;;;;5057535;28;20480;-82
2021/04/23 13:31:01;;;;;;;7.97;6.53;;;15.00;38.70;;;;;;5093346;28;20472;-80
2021/04/23 13:33:38;;;;;;;12.27;6.80;;;14.80;38.00;;;;;;5086187;28;20510;-82
2021/04/23 13:36:21;;;;;;;36.03;8.13;;;15.00;38.80;;;;;;5088488;28;20515;-81
2021/04/23 13:38:58;;;;;;;8.47;5.73;;;15.00;38.40;;;;;;5089203;28;20663;-80
2021/04/23 13:41:38;;;;;;;7.07;6.15;;;14.80;37.90;;;;;;5085223;28;20459;-84
2021/04/23 13:44:27;;;;;;;7.60;6.50;;;14.60;37.60;;;;;;5086619;28;21172;-84
2021/04/23 13:47:05;;;;;;;6.97;5.75;;;14.80;37.30;;;;;;5085000;28;20503;-84
2021/04/23 13:49:41;;;;;;;7.10;6.00;;;14.80;36.90;;;;;;5082746;28;20689;-85
2021/04/23 13:52:18;;;;;;;7.23;5.40;;;14.60;36.70;;;;;;5092544;28;20460;-85
2021/04/23 13:54:53;;;;;;;8.83;5.47;;;14.70;37.50;;;;;;5102936;28;20441;-82
2021/04/23 13:58:00;;;;;;;6.80;5.40;;;14.80;37.60;;;;;;5098383;28;20456;-83
2021/04/23 14:00:55;;;;;;;14.27;5.90;;;14.60;37.10;;;;;;5086108;28;20495;-84
2021/04/23 14:03:31;;;;;;;8.13;5.60;;;14.70;37.20;;;;;;5098706;28;20461;-85
2021/04/23 14:06:05;;;;;;;7.90;4.90;;;15.00;37.00;;;;;;5095891;28;20456;-85
2021/04/23 14:08:40;;;;;;;6.67;5.13;;;15.20;36.90;;;;;;5087742;28;20451;-85
2021/04/23 14:11:18;;;;;;;7.00;4.97;;;15.00;36.60;;;;;;5080637;28;20460;-85
2021/04/23 14:14:03;;;;;;;6.87;5.47;;;15.10;36.50;;;;;;5104763;28;20545;-86
2021/04/23 14:17:04;;;;;;;7.27;4.80;;;14.70;36.20;;;;;;5101215;28;20460;-85
2021/04/23 14:19:41;;;;;;;6.80;4.83;;;15.20;36.40;;;;;;5082486;28;20509;-86
2021/04/23 14:22:18;;;;;;;7.63;5.43;;;15.40;36.30;;;;;;5095331;28;20524;-83
2021/04/23 14:24:51;;;;;;;6.90;5.27;;;15.00;35.60;;;;;;5093536;28;20523;-83
2021/04/23 14:27:26;;;;;;;5.43;4.10;;;15.30;36.00;;;;;;5090876;28;20436;-84
2021/04/23 14:30:07;;;;;;;11.47;4.20;;;15.00;35.40;;;;;;5101407;28;20589;-84
2021/04/23 14:32:43;;;;;;;5.27;3.80;;;15.00;35.10;;;;;;5096090;28;20931;-85
2021/04/23 14:35:24;;;;;;;4.43;4.03;;;14.90;35.10;;;;;;5090473;28;20444;-85
2021/04/23 14:37:59;;;;;;;5.20;4.40;;;15.00;35.60;;;;;;5101731;28;20460;-87
2021/04/23 14:40:34;;;;;;;6.47;4.70;;;14.90;35.60;;;;;;5090010;28;20497;-85
2021/04/23 14:43:10;;;;;;;7.33;5.20;;;14.90;36.10;;;;;;5098229;28;20501;-83
2021/04/23 14:45:49;;;;;;;8.03;4.53;;;14.70;36.10;;;;;;5089641;28;20464;-84
2021/04/23 14:48:29;;;;;;;5.53;4.77;;;14.80;36.10;;;;;;5091019;28;20451;-90
2021/04/23 14:51:10;;;;;;;8.60;4.53;;;15.00;36.10;;;;;;5093891;28;20526;-88
2021/04/23 14:53:45;;;;;;;8.10;4.63;;;14.90;35.80;;;;;;5083282;28;20441;-81
2021/04/23 14:56:20;;;;;;;6.13;3.83;;;14.90;35.50;;;;;;5088046;28;20505;-85
2021/04/23 14:58:54;;;;;;;6.73;4.27;;;15.10;35.70;;;;;;5092462;28;20469;-83
2021/04/23 15:01:24;;;;;;;6.90;4.23;;;15.00;35.60;;;;;;5087442;28;20445;-85
2021/04/23 15:04:00;;;;;;;8.27;4.50;;;14.90;35.40;;;;;;5090178;28;20490;-82
2021/04/23 15:06:34;;;;;;;5.90;3.80;;;14.80;35.40;;;;;;5083301;28;20457;-82
2021/04/23 15:09:10;;;;;;;4.93;4.20;;;14.80;35.50;;;;;;5088732;28;20455;-82
2021/04/23 15:11:45;;;;;;;7.23;4.07;;;15.00;35.70;;;;;;5095941;28;20449;-82
2021/04/23 15:14:20;;;;;;;7.17;4.23;;;14.80;35.60;;;;;;5095230;28;20617;-82
2021/04/23 15:16:54;;;;;;;8.03;4.27;;;15.00;35.40;;;;;;5092961;28;21409;-82
2021/04/23 15:19:30;;;;;;;6.30;3.43;;;15.10;35.20;;;;;;5098476;28;20466;-86